Time;durP1;ratioP1;P1;durP2;ratioP2;P2;SDS_P1;SDS_P2;PMS_P1;PMS_P2;Temp;Humidity;BMP_temperature;BMP_pressure;BME280_temperature;BME280_humidity;BME280_pressure;Samples;Min_cycle;Max_cycle;Signal;HPM_P1;HPM_P2
2022/07/18 00:02:10;;;;;;;15.10;11.02;;;16.20;99.90;;;;;;5128165;27;20043;-73
2022/07/18 00:04:36;;;;;;;13.23;10.00;;;16.20;99.90;;;;;;5136490;27;20454;-73
2022/07/18 00:07:02;;;;;;;16.23;10.30;;;16.10;99.90;;;;;;5134345;27;20124;-73
2022/07/18 00:09:27;;;;;;;11.77;9.27;;;16.10;99.90;;;;;;5109064;27;20038;-74
2022/07/18 00:11:54;;;;;;;14.77;10.07;;;16.10;99.90;;;;;;5143170;27;20035;-73
2022/07/18 00:14:21;;;;;;;23.70;10.93;;;16.00;99.90;;;;;;5148569;27;20039;-73
2022/07/18 00:16:47;;;;;;;13.45;10.75;;;16.00;99.90;;;;;;5130703;27;20054;-73
2022/07/18 00:19:13;;;;;;;13.68;10.82;;;16.00;99.90;;;;;;5145874;27;20051;-74
2022/07/18 00:21:39;;;;;;;12.75;9.02;;;16.00;99.90;;;;;;5145153;27;20062;-73
2022/07/18 00:24:05;;;;;;;13.48;11.48;;;15.90;99.90;;;;;;5130739;27;20395;-73
2022/07/18 00:26:30;;;;;;;14.60;10.02;;;15.80;99.90;;;;;;5148668;27;20047;-74
2022/07/18 00:28:56;;;;;;;13.48;10.35;;;15.80;99.90;;;;;;5140505;27;20560;-73
2022/07/18 00:31:22;;;;;;;20.13;10.25;;;15.80;99.90;;;;;;5148414;27;20372;-73
2022/07/18 00:33:47;;;;;;;17.10;12.32;;;15.70;99.90;;;;;;5147835;27;20054;-73
2022/07/18 00:36:14;;;;;;;12.27;10.10;;;15.70;99.90;;;;;;5133897;27;20153;-73
2022/07/18 00:38:40;;;;;;;15.40;11.07;;;15.70;99.90;;;;;;5137662;27;20125;-74
2022/07/18 00:41:06;;;;;;;13.35;9.95;;;15.70;99.90;;;;;;5147868;27;20129;-74
2022/07/18 00:43:32;;;;;;;14.27;10.52;;;15.60;99.90;;;;;;5116667;27;20062;-74
2022/07/18 00:45:58;;;;;;;12.88;10.10;;;15.60;99.90;;;;;;5128295;27;20055;-74
2022/07/18 00:48:24;;;;;;;11.77;8.25;;;15.50;99.90;;;;;;5147353;27;20043;-74
2022/07/18 00:50:50;;;;;;;11.45;8.15;;;15.40;99.90;;;;;;5112018;28;20179;-73
2022/07/18 00:53:16;;;;;;;11.05;7.32;;;15.30;99.90;;;;;;5112501;28;20039;-73
2022/07/18 00:55:43;;;;;;;9.45;7.68;;;15.10;99.90;;;;;;5129417;27;20051;-73
2022/07/18 00:58:10;;;;;;;18.37;8.03;;;15.00;99.90;;;;;;5148269;27;20126;-74
2022/07/18 01:03:21;;;;;;;13.00;8.10;;;14.90;99.90;;;;;;5145906;27;20099;-73
2022/07/18 01:05:46;;;;;;;12.70;9.98;;;14.90;99.90;;;;;;5127882;27;20445;-73
2022/07/18 01:08:12;;;;;;;12.75;10.27;;;15.00;99.90;;;;;;5129800;27;20042;-73
2022/07/18 01:10:38;;;;;;;15.25;10.40;;;15.00;99.90;;;;;;5129471;27;20050;-74
2022/07/18 01:13:03;;;;;;;19.08;11.50;;;15.00;99.90;;;;;;5112496;27;20063;-73
2022/07/18 01:15:29;;;;;;;16.67;10.27;;;14.90;99.90;;;;;;5145313;27;20051;-73
2022/07/18 01:17:55;;;;;;;14.30;9.85;;;15.00;99.90;;;;;;5151864;27;20042;-74
2022/07/18 01:20:21;;;;;;;12.25;9.05;;;15.00;99.90;;;;;;5128217;27;20050;-73
2022/07/18 01:22:46;;;;;;;16.35;11.70;;;15.00;99.90;;;;;;5151049;27;20126;-74
2022/07/18 01:25:14;;;;;;;16.00;11.38;;;14.80;99.90;;;;;;5106078;27;20047;-74
2022/07/18 01:27:40;;;;;;;19.00;10.25;;;14.80;99.90;;;;;;5115288;27;20051;-73
2022/07/18 01:30:06;;;;;;;15.25;10.60;;;14.70;99.90;;;;;;5130934;27;20051;-74
2022/07/18 01:32:32;;;;;;;10.77;9.23;;;14.60;99.90;;;;;;5101678;27;20055;-74
2022/07/18 01:34:58;;;;;;;12.93;10.00;;;14.60;99.90;;;;;;5122428;27;20039;-73
2022/07/18 01:37:23;;;;;;;16.20;10.68;;;14.60;99.90;;;;;;5134471;27;20408;-74
2022/07/18 01:39:49;;;;;;;16.15;11.18;;;14.50;99.90;;;;;;5128634;27;20046;-74
2022/07/18 01:42:16;;;;;;;17.70;11.32;;;14.50;99.90;;;;;;5121750;27;20042;-73
2022/07/18 01:44:42;;;;;;;15.70;10.23;;;14.50;99.90;;;;;;5125390;27;20047;-73
2022/07/18 01:47:10;;;;;;;15.25;10.85;;;14.50;99.90;;;;;;5143745;27;20103;-73
2022/07/18 01:49:38;;;;;;;13.30;10.18;;;14.50;99.90;;;;;;5143487;27;20043;-73
2022/07/18 01:52:04;;;;;;;17.20;11.23;;;14.50;99.90;;;;;;5117283;27;20050;-73
2022/07/18 01:54:31;;;;;;;15.68;11.18;;;14.50;99.90;;;;;;5129710;27;20093;-74
2022/07/18 01:56:59;;;;;;;16.95;11.32;;;14.50;99.90;;;;;;5151588;27;20415;-73
2022/07/18 01:59:25;;;;;;;15.18;11.15;;;14.40;99.90;;;;;;5133045;27;20042;-73
2022/07/18 02:01:51;;;;;;;15.30;10.70;;;14.50;99.90;;;;;;5132915;27;20057;-73
2022/07/18 02:04:17;;;;;;;17.60;10.55;;;14.50;99.90;;;;;;5133255;27;20035;-73
2022/07/18 02:06:43;;;;;;;14.18;9.90;;;14.50;99.90;;;;;;5131774;27;20054;-73
2022/07/18 02:09:09;;;;;;;15.00;11.18;;;14.40;99.90;;;;;;5151953;27;20035;-73
2022/07/18 02:11:35;;;;;;;17.50;11.35;;;14.40;99.90;;;;;;5121559;27;20039;-74
2022/07/18 02:14:01;;;;;;;21.17;11.73;;;14.40;99.90;;;;;;5133119;27;20035;-74
2022/07/18 02:16:28;;;;;;;14.75;10.93;;;14.30;99.90;;;;;;5151441;27;20457;-73
2022/07/18 02:18:55;;;;;;;15.25;11.35;;;14.30;99.90;;;;;;5147732;27;20046;-73
2022/07/18 02:21:20;;;;;;;20.60;12.27;;;14.30;99.90;;;;;;5134013;27;20047;-73
2022/07/18 02:23:46;;;;;;;21.77;11.73;;;14.40;99.90;;;;;;5133488;27;20045;-73
2022/07/18 02:26:12;;;;;;;15.68;11.65;;;14.30;99.90;;;;;;5127976;27;20042;-73
2022/07/18 02:28:38;;;;;;;12.82;11.10;;;14.30;99.90;;;;;;5143375;27;20534;-73
2022/07/18 02:31:05;;;;;;;18.65;10.00;;;14.30;99.90;;;;;;5151105;27;20050;-73
2022/07/18 02:33:31;;;;;;;12.52;9.88;;;14.30;99.90;;;;;;5131809;27;20082;-73
2022/07/18 02:35:58;;;;;;;17.60;10.75;;;14.30;99.90;;;;;;5125206;27;20043;-73
2022/07/18 02:38:24;;;;;;;15.63;11.48;;;14.20;99.90;;;;;;5146159;27;20042;-73
2022/07/18 02:40:49;;;;;;;17.40;12.18;;;14.20;99.90;;;;;;5122425;27;20051;-73
2022/07/18 02:43:15;;;;;;;17.80;12.13;;;14.20;99.90;;;;;;5129692;27;20039;-73
2022/07/18 02:45:41;;;;;;;18.15;13.38;;;14.20;99.90;;;;;;5125089;27;20039;-73
2022/07/18 02:48:08;;;;;;;16.08;11.55;;;14.20;99.90;;;;;;5128747;27;20046;-73
2022/07/18 02:50:33;;;;;;;14.35;11.38;;;14.10;99.90;;;;;;5120460;27;20050;-73
2022/07/18 02:52:59;;;;;;;17.70;11.52;;;14.10;99.90;;;;;;5151120;27;20038;-73
2022/07/18 02:55:24;;;;;;;16.27;12.55;;;14.10;99.90;;;;;;5125352;27;20038;-73
2022/07/18 02:57:51;;;;;;;14.50;11.60;;;14.10;99.90;;;;;;5150694;27;20046;-73
2022/07/18 03:00:17;;;;;;;16.13;11.70;;;14.10;99.90;;;;;;5146333;27;20054;-73
2022/07/18 03:02:44;;;;;;;14.88;11.00;;;14.10;99.90;;;;;;5147784;27;20050;-73
2022/07/18 03:05:10;;;;;;;15.70;10.80;;;14.10;99.90;;;;;;5128227;27;20479;-73
2022/07/18 03:07:36;;;;;;;17.80;10.93;;;14.00;99.90;;;;;;5113572;27;20043;-73
2022/07/18 03:10:03;;;;;;;14.68;10.25;;;13.90;99.90;;;;;;5120145;27;20511;-74
2022/07/18 03:12:29;;;;;;;15.23;11.13;;;13.90;99.90;;;;;;5128463;27;20070;-74
2022/07/18 03:14:55;;;;;;;16.55;12.30;;;13.90;99.90;;;;;;5130968;27;20047;-73
2022/07/18 03:17:20;;;;;;;15.10;11.15;;;13.80;99.90;;;;;;5139114;27;20494;-73
2022/07/18 03:19:46;;;;;;;17.65;13.00;;;13.80;99.90;;;;;;5120251;27;20050;-74
2022/07/18 03:22:12;;;;;;;22.70;11.10;;;13.70;99.90;;;;;;5110167;27;20046;-74
2022/07/18 03:24:37;;;;;;;11.70;9.80;;;13.70;99.90;;;;;;5130673;27;20068;-73
2022/07/18 03:27:04;;;;;;;11.90;8.35;;;13.60;99.90;;;;;;5130686;27;20059;-74
2022/07/18 03:29:29;;;;;;;13.60;9.63;;;13.60;99.90;;;;;;5135040;27;20058;-73
2022/07/18 03:31:55;;;;;;;19.00;10.90;;;13.70;99.90;;;;;;5149375;27;20051;-73
2022/07/18 03:34:21;;;;;;;15.40;12.45;;;13.70;99.90;;;;;;5112963;27;20125;-73
2022/07/18 03:36:47;;;;;;;15.25;12.10;;;13.70;99.90;;;;;;5148696;27;20042;-74
2022/07/18 03:39:12;;;;;;;16.33;12.00;;;13.60;99.90;;;;;;5138983;27;20127;-73
2022/07/18 03:41:39;;;;;;;13.50;10.10;;;13.50;99.90;;;;;;5144192;27;20074;-73
2022/07/18 03:44:05;;;;;;;14.93;11.52;;;13.50;99.90;;;;;;5116306;27;20043;-73
2022/07/18 03:46:31;;;;;;;16.92;11.75;;;13.50;99.90;;;;;;5106718;27;20060;-73
2022/07/18 03:48:57;;;;;;;19.02;13.52;;;13.50;99.90;;;;;;5125113;27;20042;-74
2022/07/18 03:51:23;;;;;;;21.63;14.05;;;13.40;99.90;;;;;;5130867;27;20220;-73
2022/07/18 03:53:48;;;;;;;21.10;14.25;;;13.40;99.90;;;;;;5136583;27;20035;-73
2022/07/18 03:56:14;;;;;;;15.70;12.40;;;13.30;99.90;;;;;;5121932;27;20081;-73
2022/07/18 03:58:40;;;;;;;16.02;12.63;;;13.30;99.90;;;;;;5125249;27;20090;-73
2022/07/18 04:01:05;;;;;;;13.82;10.27;;;13.40;99.90;;;;;;5135819;27;20122;-73
2022/07/18 04:03:31;;;;;;;19.25;11.07;;;13.40;99.90;;;;;;5140478;27;20419;-73
2022/07/18 04:05:57;;;;;;;14.55;10.82;;;13.50;99.90;;;;;;5148105;27;20039;-73
2022/07/18 04:08:22;;;;;;;12.00;10.50;;;13.50;99.90;;;;;;5129270;27;20572;-73
2022/07/18 04:10:48;;;;;;;16.83;11.25;;;13.50;99.90;;;;;;5135172;27;20066;-73
2022/07/18 04:13:15;;;;;;;19.30;13.25;;;13.50;99.90;;;;;;5117085;27;20571;-73
2022/07/18 04:15:42;;;;;;;20.27;15.43;;;13.60;99.90;;;;;;5140683;27;20559;-74
2022/07/18 04:18:08;;;;;;;21.17;14.88;;;13.50;99.90;;;;;;5148617;27;20491;-74
2022/07/18 04:20:35;;;;;;;17.80;13.98;;;13.50;99.90;;;;;;5115922;27;20062;-73
2022/07/18 04:23:03;;;;;;;25.95;14.80;;;13.40;99.90;;;;;;5142087;27;20058;-73
2022/07/18 04:25:40;;;;;;;22.27;13.80;;;13.60;99.90;;;;;;5110322;27;20054;-74
2022/07/18 04:28:08;;;;;;;32.75;14.63;;;13.70;99.90;;;;;;5129506;27;20410;-74
2022/07/18 04:30:34;;;;;;;23.90;13.65;;;13.90;99.90;;;;;;5146157;27;20046;-73
2022/07/18 04:33:05;;;;;;;26.92;17.50;;;14.00;99.90;;;;;;5128078;27;20677;-71
2022/07/18 04:35:31;;;;;;;25.35;16.80;;;14.00;99.90;;;;;;5137969;27;20042;-71
2022/07/18 04:37:58;;;;;;;30.13;15.77;;;14.00;99.90;;;;;;5139584;27;20431;-71
2022/07/18 04:40:23;;;;;;;35.85;17.52;;;14.00;99.90;;;;;;5147761;27;20050;-71
2022/07/18 04:42:49;;;;;;;43.90;20.23;;;14.00;99.90;;;;;;5140332;27;20107;-71
2022/07/18 04:45:15;;;;;;;57.47;20.85;;;14.00;99.90;;;;;;5148546;27;20483;-71
2022/07/18 04:47:41;;;;;;;28.95;17.45;;;14.10;99.90;;;;;;5148212;27;20047;-71
2022/07/18 04:50:07;;;;;;;31.13;15.70;;;14.10;99.90;;;;;;5150833;27;20119;-71
2022/07/18 04:52:42;;;;;;;36.25;19.73;;;14.10;99.90;;;;;;5149574;27;20055;-71
2022/07/18 04:55:09;;;;;;;27.65;16.17;;;14.20;99.90;;;;;;5149948;27;20043;-70
2022/07/18 04:57:35;;;;;;;24.92;15.90;;;14.30;99.90;;;;;;5141315;27;20422;-70
2022/07/18 05:00:07;;;;;;;30.70;17.27;;;14.30;99.90;;;;;;5135094;27;20043;-71
2022/07/18 05:02:34;;;;;;;27.20;19.23;;;14.40;99.90;;;;;;5125230;27;20068;-70
2022/07/18 05:04:59;;;;;;;36.33;20.88;;;14.50;99.90;;;;;;5132524;27;20049;-70
2022/07/18 05:07:25;;;;;;;37.88;19.83;;;14.50;99.90;;;;;;5128002;27;20042;-70
2022/07/18 05:09:51;;;;;;;33.10;19.48;;;14.60;99.90;;;;;;5144551;27;20216;-70
2022/07/18 05:12:18;;;;;;;26.55;18.13;;;14.60;99.90;;;;;;5150167;27;20034;-70
2022/07/18 05:14:44;;;;;;;28.27;19.48;;;14.70;99.90;;;;;;5152114;27;20499;-70
2022/07/18 05:17:10;;;;;;;31.27;19.20;;;14.80;99.90;;;;;;5139608;27;20091;-71
2022/07/18 05:19:36;;;;;;;28.80;18.75;;;14.80;99.90;;;;;;5148964;27;20046;-71
2022/07/18 05:22:01;;;;;;;37.42;20.02;;;14.90;99.90;;;;;;5151963;27;20102;-70
2022/07/18 05:24:27;;;;;;;29.92;19.08;;;15.00;99.90;;;;;;5151724;27;20506;-70
2022/07/18 05:26:52;;;;;;;31.17;21.08;;;15.00;99.90;;;;;;5141753;27;20118;-70
2022/07/18 05:29:18;;;;;;;32.30;18.45;;;15.20;99.90;;;;;;5130884;27;20122;-70
2022/07/18 05:31:55;;;;;;;29.83;18.40;;;15.20;99.90;;;;;;5140455;27;20043;-70
2022/07/18 05:34:21;;;;;;;31.02;19.58;;;15.40;99.90;;;;;;5152709;27;20039;-70
2022/07/18 05:36:47;;;;;;;35.08;20.20;;;15.40;99.90;;;;;;5141859;27;20388;-70
2022/07/18 05:39:13;;;;;;;31.50;18.30;;;15.50;99.90;;;;;;5150318;27;20574;-70
2022/07/18 05:41:38;;;;;;;28.58;18.27;;;15.50;99.90;;;;;;5147890;27;20049;-70
2022/07/18 05:44:04;;;;;;;28.15;17.63;;;15.60;99.90;;;;;;5135858;27;20073;-70
2022/07/18 05:46:30;;;;;;;25.85;18.10;;;15.60;99.90;;;;;;5144485;27;20118;-70
2022/07/18 05:48:56;;;;;;;33.83;16.88;;;15.70;99.90;;;;;;5127524;27;20035;-70
2022/07/18 05:51:21;;;;;;;29.25;17.20;;;15.80;99.90;;;;;;5132877;27;20043;-70
2022/07/18 05:53:48;;;;;;;23.98;15.65;;;15.80;99.90;;;;;;5141366;27;20125;-70
2022/07/18 05:56:13;;;;;;;19.73;15.55;;;15.90;99.90;;;;;;5116133;27;20066;-70
2022/07/18 05:58:39;;;;;;;28.95;16.05;;;16.00;99.90;;;;;;5149027;27;20412;-69
2022/07/18 06:01:06;;;;;;;22.25;14.43;;;16.10;99.90;;;;;;5140913;27;20122;-69
2022/07/18 06:03:33;;;;;;;23.52;15.00;;;16.20;99.90;;;;;;5145291;27;20042;-71
2022/07/18 06:05:58;;;;;;;19.08;13.38;;;16.20;99.90;;;;;;5147540;27;20045;-70
2022/07/18 06:08:24;;;;;;;22.20;14.18;;;16.40;99.90;;;;;;5139049;27;20043;-70
2022/07/18 06:10:50;;;;;;;17.83;12.65;;;16.50;99.90;;;;;;5142065;27;20043;-70
2022/07/18 06:13:16;;;;;;;18.10;10.98;;;16.60;99.90;;;;;;5139696;27;20062;-70
2022/07/18 06:15:41;;;;;;;21.58;10.93;;;16.60;99.90;;;;;;5142980;27;20067;-70
2022/07/18 06:18:07;;;;;;;14.85;11.80;;;16.70;99.90;;;;;;5149802;27;20051;-70
2022/07/18 06:20:33;;;;;;;21.83;11.60;;;16.90;99.90;;;;;;5143939;27;20490;-70
2022/07/18 06:22:58;;;;;;;16.63;10.00;;;16.90;99.90;;;;;;5136662;27;20033;-71
2022/07/18 06:25:24;;;;;;;14.55;8.48;;;17.00;99.90;;;;;;5132493;27;20074;-71
2022/07/18 06:27:50;;;;;;;12.40;7.90;;;17.20;99.90;;;;;;5146047;27;20548;-73
2022/07/18 06:30:15;;;;;;;18.15;8.15;;;17.30;99.90;;;;;;5135192;27;20078;-73
2022/07/18 06:32:41;;;;;;;11.35;6.93;;;17.40;99.90;;;;;;5133532;27;20115;-72
2022/07/18 06:35:08;;;;;;;11.13;7.43;;;17.60;99.90;;;;;;5131509;27;20122;-72
2022/07/18 06:37:33;;;;;;;8.90;7.40;;;17.70;99.90;;;;;;5124208;27;20046;-72
2022/07/18 06:39:59;;;;;;;15.38;7.97;;;17.80;99.90;;;;;;5145966;27;20042;-72
2022/07/18 06:42:25;;;;;;;11.85;8.88;;;18.00;99.90;;;;;;5148189;27;20047;-73
2022/07/18 06:44:50;;;;;;;14.13;8.73;;;18.20;99.90;;;;;;5147319;27;20030;-73
2022/07/18 06:47:16;;;;;;;10.65;8.88;;;18.40;99.90;;;;;;5128408;27;20046;-72
2022/07/18 06:49:41;;;;;;;13.30;8.55;;;18.50;99.90;;;;;;5149730;27;20121;-72
2022/07/18 06:52:11;;;;;;;12.15;8.85;;;18.70;99.90;;;;;;5118413;27;20035;-72
2022/07/18 06:54:38;;;;;;;12.02;7.05;;;18.90;99.90;;;;;;5130222;27;20105;-72
2022/07/18 06:57:07;;;;;;;13.38;7.53;;;19.10;99.90;;;;;;5124142;27;20229;-72
2022/07/18 06:59:33;;;;;;;14.80;7.50;;;19.40;99.90;;;;;;5129048;27;20058;-72
2022/07/18 07:02:01;;;;;;;17.85;7.45;;;19.50;99.90;;;;;;5126790;27;20047;-73
2022/07/18 07:04:27;;;;;;;;;;;19.60;99.90;;;;;;5114249;27;20042;-72
2022/07/18 07:06:52;;;;;;;19.05;6.75;;;19.90;99.90;;;;;;5131516;27;19942;-72
2022/07/18 07:09:18;;;;;;;11.90;5.47;;;20.20;99.90;;;;;;5128424;27;20039;-72
2022/07/18 07:11:43;;;;;;;14.57;6.05;;;20.50;99.90;;;;;;5126765;27;20064;-72
2022/07/18 07:14:09;;;;;;;6.05;4.88;;;20.80;99.90;;;;;;5120784;27;20126;-73
2022/07/18 07:16:35;;;;;;;9.32;4.90;;;21.10;99.90;;;;;;5111063;27;20209;-73
2022/07/18 07:19:00;;;;;;;9.10;4.90;;;21.40;99.90;;;;;;5128196;27;20121;-73
2022/07/18 07:21:26;;;;;;;4.20;3.80;;;21.60;99.90;;;;;;5110957;27;20491;-73
2022/07/18 07:23:53;;;;;;;22.48;4.75;;;21.90;99.90;;;;;;5126257;27;20942;-73
2022/07/18 07:26:18;;;;;;;6.63;3.60;;;22.20;99.90;;;;;;5121956;27;20054;-72
2022/07/18 07:28:44;;;;;;;6.80;4.22;;;22.40;99.90;;;;;;5113849;27;20035;-73
2022/07/18 07:31:10;;;;;;;9.88;3.83;;;22.70;99.90;;;;;;5115724;27;20087;-73
2022/07/18 07:33:36;;;;;;;4.43;3.63;;;23.00;99.90;;;;;;5130843;27;20051;-72
2022/07/18 07:36:03;;;;;;;8.90;3.83;;;23.30;94.60;;;;;;5125805;27;20046;-72
2022/07/18 07:38:29;;;;;;;7.20;4.37;;;23.50;92.00;;;;;;5111922;27;20042;-71
2022/07/18 07:40:55;;;;;;;3.75;3.40;;;23.90;90.40;;;;;;5117578;27;20137;-70
2022/07/18 07:43:23;;;;;;;4.65;3.45;;;24.10;84.10;;;;;;5126631;27;20050;-71
2022/07/18 07:45:50;;;;;;;8.73;3.75;;;24.20;79.00;;;;;;5118863;27;20046;-73
2022/07/18 07:48:16;;;;;;;4.93;3.83;;;24.40;76.00;;;;;;5129213;27;20051;-72
2022/07/18 07:50:42;;;;;;;4.10;3.05;;;24.70;76.10;;;;;;5128920;27;20046;-72
2022/07/18 07:53:09;;;;;;;4.20;3.05;;;24.90;73.00;;;;;;5129259;27;20042;-72
2022/07/18 07:55:35;;;;;;;6.43;3.67;;;25.20;70.50;;;;;;5147430;27;20054;-73
2022/07/18 07:58:00;;;;;;;3.67;2.88;;;25.40;71.10;;;;;;5129640;27;20304;-73
2022/07/18 08:00:27;;;;;;;5.25;3.35;;;25.40;68.80;;;;;;5128998;27;20055;-72
2022/07/18 08:03:02;;;;;;;9.23;4.50;;;25.40;67.80;;;;;;5130045;27;20058;-72
2022/07/18 08:05:30;;;;;;;8.63;5.20;;;25.30;69.40;;;;;;5148488;27;20039;-72
2022/07/18 08:07:57;;;;;;;4.68;4.25;;;25.10;66.80;;;;;;5130013;27;20084;-72
2022/07/18 08:10:24;;;;;;;5.38;3.70;;;24.90;67.10;;;;;;5130262;27;20047;-72
2022/07/18 08:12:49;;;;;;;5.50;3.40;;;24.80;67.20;;;;;;5131394;27;20046;-72
2022/07/18 08:15:18;;;;;;;6.75;3.72;;;24.70;66.50;;;;;;5137774;27;20042;-72
2022/07/18 08:17:43;;;;;;;8.18;4.05;;;24.80;65.60;;;;;;5124339;27;20046;-72
2022/07/18 08:20:11;;;;;;;7.28;3.65;;;25.00;67.10;;;;;;5130987;27;20046;-73
2022/07/18 08:22:51;;;;;;;;;;;25.40;66.10;;;;;;5134398;27;20059;-72
2022/07/18 08:25:19;;;;;;;9.23;5.55;;;25.70;62.60;;;;;;5134526;27;19926;-72
2022/07/18 08:27:44;;;;;;;6.63;4.00;;;25.90;66.00;;;;;;5148816;27;20053;-72
2022/07/18 08:30:10;;;;;;;5.95;4.15;;;26.00;65.40;;;;;;5131641;27;20046;-72
2022/07/18 08:32:36;;;;;;;6.05;3.67;;;26.20;65.40;;;;;;5134158;27;20039;-72
2022/07/18 08:35:01;;;;;;;6.55;3.95;;;26.30;63.50;;;;;;5113718;27;20399;-70
2022/07/18 08:37:27;;;;;;;4.68;3.40;;;26.40;62.20;;;;;;5137370;27;20070;-69
2022/07/18 08:39:53;;;;;;;5.90;3.22;;;26.50;60.50;;;;;;5150125;27;20515;-69
2022/07/18 08:42:23;;;;;;;5.80;3.55;;;26.60;59.60;;;;;;5144182;27;20051;-69
2022/07/18 08:44:49;;;;;;;4.22;3.25;;;26.60;58.40;;;;;;5124913;27;20035;-69
2022/07/18 08:47:17;;;;;;;2.65;2.40;;;26.80;59.30;;;;;;5152528;27;20136;-69
2022/07/18 08:49:43;;;;;;;6.35;3.53;;;27.00;58.20;;;;;;5151712;27;20083;-69
2022/07/18 08:52:09;;;;;;;3.75;3.35;;;27.30;57.20;;;;;;5151907;27;20053;-69
2022/07/18 08:54:36;;;;;;;8.35;3.63;;;27.40;55.50;;;;;;5151454;27;20051;-69
2022/07/18 08:57:01;;;;;;;5.25;3.15;;;27.70;55.30;;;;;;5151759;27;20055;-69
2022/07/18 08:59:27;;;;;;;5.28;3.15;;;27.90;55.00;;;;;;5151989;27;20057;-68
2022/07/18 09:01:53;;;;;;;3.20;2.97;;;28.00;53.60;;;;;;5145968;27;20042;-68
2022/07/18 09:04:32;;;;;;;5.88;3.53;;;28.00;53.90;;;;;;5141651;27;20050;-69
2022/07/18 09:06:58;;;;;;;9.63;3.40;;;28.00;52.60;;;;;;5149023;27;20050;-69
2022/07/18 09:09:24;;;;;;;5.40;2.70;;;28.00;52.40;;;;;;5125028;27;20499;-68
2022/07/18 09:11:54;;;;;;;5.97;3.92;;;28.00;52.80;;;;;;5151339;27;20051;-69
2022/07/18 09:14:38;;;;;;;7.57;3.65;;;28.00;53.20;;;;;;5148038;27;20055;-69
2022/07/18 09:17:16;;;;;;;6.72;3.28;;;27.80;51.90;;;;;;5150550;27;20046;-69
2022/07/18 09:19:42;;;;;;;;;;;27.70;51.60;;;;;;5146296;27;20117;-69
2022/07/18 09:22:16;;;;;;;9.70;4.07;;;27.60;50.90;;;;;;5131508;27;19918;-69
2022/07/18 09:24:53;;;;;;;5.20;2.70;;;27.60;52.90;;;;;;5138422;27;20047;-69
2022/07/18 09:27:38;;;;;;;6.32;3.05;;;27.60;52.40;;;;;;5126472;27;20046;-69
2022/07/18 09:30:16;;;;;;;5.32;3.35;;;27.50;51.50;;;;;;5137010;27;20042;-70
2022/07/18 09:32:47;;;;;;;7.10;3.65;;;27.40;51.70;;;;;;5128869;27;20072;-69
2022/07/18 09:35:19;;;;;;;3.15;2.55;;;27.50;52.80;;;;;;5141928;27;20036;-69
2022/07/18 09:38:09;;;;;;;6.35;3.13;;;27.60;51.90;;;;;;5143417;27;20074;-70
2022/07/18 09:40:46;;;;;;;6.03;3.13;;;27.70;51.20;;;;;;5141938;27;20436;-70
2022/07/18 09:43:14;;;;;;;7.78;3.35;;;27.80;52.10;;;;;;5123071;27;20039;-69
2022/07/18 09:45:44;;;;;;;6.72;2.90;;;27.90;52.00;;;;;;5140991;27;20110;-70
2022/07/18 09:48:28;;;;;;;5.22;3.10;;;27.90;51.10;;;;;;5147542;27;20126;-69
2022/07/18 09:50:58;;;;;;;11.90;3.45;;;28.00;48.90;;;;;;5143650;27;20070;-69
2022/07/18 09:53:31;;;;;;;3.08;2.72;;;28.10;49.80;;;;;;5145218;27;20043;-69
2022/07/18 09:56:12;;;;;;;3.35;2.80;;;28.20;49.20;;;;;;5144963;27;20568;-69
2022/07/18 09:58:39;;;;;;;9.35;4.75;;;28.30;47.70;;;;;;5147498;27;20058;-69
2022/07/18 10:01:06;;;;;;;;;;;28.30;49.00;;;;;;5140986;27;20092;-69
2022/07/18 10:03:32;;;;;;;8.60;3.72;;;28.50;49.00;;;;;;5143049;27;19922;-69
2022/07/18 10:05:59;;;;;;;8.18;3.55;;;28.70;49.70;;;;;;5138274;27;20043;-69
2022/07/18 10:08:30;;;;;;;4.88;2.72;;;28.80;49.70;;;;;;5145170;27;20438;-69
2022/07/18 10:10:59;;;;;;;3.97;2.97;;;28.80;48.80;;;;;;5122720;27;20150;-69
2022/07/18 10:13:26;;;;;;;4.30;3.20;;;28.80;48.00;;;;;;5133139;27;20104;-67
2022/07/18 10:15:52;;;;;;;5.03;3.20;;;29.00;47.70;;;;;;5131395;27;20121;-68
2022/07/18 10:18:23;;;;;;;6.47;4.22;;;29.20;47.90;;;;;;5150189;27;20149;-68
2022/07/18 10:20:56;;;;;;;7.97;5.00;;;29.30;47.50;;;;;;5128623;27;20513;-67
2022/07/18 10:23:27;;;;;;;4.85;3.22;;;29.50;47.00;;;;;;5141549;27;20043;-68
2022/07/18 10:26:19;;;;;;;5.72;3.03;;;29.60;45.50;;;;;;5146385;27;20275;-68
2022/07/18 10:29:00;;;;;;;5.25;3.63;;;29.40;42.90;;;;;;5138755;27;20047;-68
2022/07/18 10:31:26;;;;;;;4.88;3.10;;;29.50;44.90;;;;;;5136514;27;20091;-68
2022/07/18 10:34:08;;;;;;;7.15;3.58;;;29.70;45.90;;;;;;5141478;27;20502;-69
2022/07/18 10:36:34;;;;;;;7.55;3.67;;;29.80;46.20;;;;;;5146670;27;20042;-69
2022/07/18 10:39:20;;;;;;;11.15;4.45;;;29.90;45.70;;;;;;5137210;27;20057;-69
2022/07/18 10:41:45;;;;;;;8.50;3.50;;;29.90;44.90;;;;;;5144145;27;20043;-69
2022/07/18 10:44:23;;;;;;;5.90;3.42;;;29.90;45.60;;;;;;5129793;27;20535;-69
2022/07/18 10:47:09;;;;;;;10.25;3.85;;;30.20;43.50;;;;;;5133286;27;20612;-70
2022/07/18 10:49:52;;;;;;;9.55;3.67;;;30.30;42.50;;;;;;5135676;27;20064;-69
2022/07/18 10:52:33;;;;;;;6.43;4.57;;;30.30;42.50;;;;;;5132203;27;20050;-69
2022/07/18 10:55:04;;;;;;;8.48;4.75;;;30.50;42.80;;;;;;5148192;27;20039;-69
2022/07/18 10:57:35;;;;;;;4.93;3.78;;;30.50;42.30;;;;;;5129703;27;20086;-69
2022/07/18 11:00:10;;;;;;;9.68;4.40;;;30.50;42.60;;;;;;5143578;27;20430;-69
2022/07/18 11:02:39;;;;;;;7.95;5.18;;;30.70;43.10;;;;;;5135252;27;20051;-69
2022/07/18 11:05:25;;;;;;;5.53;4.90;;;30.70;41.80;;;;;;5149975;27;20121;-69
2022/07/18 11:08:06;;;;;;;4.82;4.25;;;30.80;41.10;;;;;;5126340;27;20071;-70
2022/07/18 11:13:27;;;;;;;8.63;5.38;;;31.20;41.70;;;;;;5125333;27;20052;-69
2022/07/18 11:16:05;;;;;;;5.82;4.68;;;31.20;40.10;;;;;;5129753;27;20518;-69
2022/07/18 11:18:51;;;;;;;5.93;4.00;;;31.20;40.70;;;;;;5137650;27;20116;-69
2022/07/18 11:21:21;;;;;;;7.00;5.30;;;31.00;40.20;;;;;;5143133;27;20051;-69
2022/07/18 11:23:49;;;;;;;7.65;4.40;;;31.10;40.90;;;;;;5118403;27;20100;-69
2022/07/18 11:26:20;;;;;;;5.30;4.57;;;31.10;41.50;;;;;;5144600;27;20099;-69
2022/07/18 11:28:48;;;;;;;7.22;4.75;;;31.10;41.30;;;;;;5149012;27;20085;-69
2022/07/18 11:31:15;;;;;;;8.32;4.97;;;31.20;41.50;;;;;;5142422;27;20046;-69
2022/07/18 11:33:47;;;;;;;8.27;5.72;;;31.20;41.10;;;;;;5135849;27;20550;-69
2022/07/18 11:36:15;;;;;;;5.93;4.85;;;31.40;42.00;;;;;;5144777;27;20043;-69
2022/07/18 11:38:58;;;;;;;9.82;5.57;;;31.40;40.40;;;;;;5142818;27;20816;-70
2022/07/18 11:41:24;;;;;;;7.05;5.75;;;31.40;38.70;;;;;;5145398;27;20042;-69
2022/07/18 11:43:51;;;;;;;6.40;5.40;;;31.40;39.90;;;;;;5140669;27;20034;-70
2022/07/18 11:46:19;;;;;;;7.82;5.18;;;31.40;40.20;;;;;;5129420;27;20138;-68
2022/07/18 11:48:47;;;;;;;7.25;5.55;;;31.60;41.60;;;;;;5136005;27;20050;-69
2022/07/18 11:51:18;;;;;;;10.10;5.97;;;31.60;40.60;;;;;;5136760;27;20100;-70
2022/07/18 11:53:50;;;;;;;8.63;5.28;;;31.60;40.80;;;;;;5147433;27;20137;-69
2022/07/18 11:56:17;;;;;;;7.60;5.15;;;31.80;40.90;;;;;;5145598;27;20407;-70
2022/07/18 11:58:46;;;;;;;5.10;4.43;;;31.90;40.20;;;;;;5143970;27;20140;-69
2022/07/18 12:01:12;;;;;;;16.52;5.90;;;32.00;40.00;;;;;;5147808;27;20062;-70
2022/07/18 12:03:45;;;;;;;8.57;5.72;;;31.90;40.00;;;;;;5144766;27;20456;-69
2022/07/18 12:06:21;;;;;;;8.35;5.85;;;32.00;38.70;;;;;;5111665;28;20039;-69
2022/07/18 12:08:51;;;;;;;11.40;7.88;;;32.00;39.00;;;;;;5126384;27;20049;-69
2022/07/18 12:11:38;;;;;;;7.78;5.95;;;32.00;39.20;;;;;;5141585;27;20039;-70
2022/07/18 12:14:06;;;;;;;7.13;6.03;;;32.00;36.60;;;;;;5129125;27;20099;-69
2022/07/18 12:16:41;;;;;;;12.45;5.75;;;32.10;39.20;;;;;;5124515;27;20047;-69
2022/07/18 12:19:12;;;;;;;10.82;6.03;;;32.00;38.40;;;;;;5133655;27;20091;-69
2022/07/18 12:21:43;;;;;;;10.23;6.70;;;32.00;38.70;;;;;;5147136;27;20047;-69
2022/07/18 12:24:31;;;;;;;14.88;6.00;;;32.00;39.00;;;;;;5144423;27;20050;-68
2022/07/18 12:27:21;;;;;;;6.85;5.50;;;31.90;38.40;;;;;;5141141;27;20100;-69
2022/07/18 12:30:09;;;;;;;5.88;5.28;;;31.90;39.40;;;;;;5144398;27;20758;-69
2022/07/18 12:32:58;;;;;;;6.97;5.13;;;32.00;38.50;;;;;;5139767;27;20039;-69
2022/07/18 12:35:38;;;;;;;8.35;5.63;;;32.00;38.30;;;;;;5145375;27;20050;-69
2022/07/18 12:38:11;;;;;;;6.85;5.30;;;32.00;38.70;;;;;;5142455;27;20234;-69
2022/07/18 12:40:52;;;;;;;7.72;6.25;;;32.00;38.50;;;;;;5144830;27;20049;-69
2022/07/18 12:43:35;;;;;;;9.38;6.53;;;31.80;38.10;;;;;;5146698;27;20039;-69
2022/07/18 12:46:05;;;;;;;17.48;6.18;;;31.70;38.50;;;;;;5140993;27;20043;-70
2022/07/18 12:48:32;;;;;;;6.32;5.60;;;31.50;39.10;;;;;;5109697;27;20676;-70
2022/07/18 12:51:06;;;;;;;7.75;5.85;;;31.40;38.10;;;;;;5140436;27;20415;-70